GF-0004 weather

Vila Brasil Airport
Camopi, Cayenne, French Guiana

Public forecast

Using degrees Celsius for public forecast. Weather courtesy of forecast.io.

METAR (pilot weather report)

Report is more than 6 hours old.

Closest report is Oiapoque Airport, 52.2 nm (96.7 km) NE. Retrieved 2019/04/21 20:00 UTC (16 hours ago):

SBOI 212000Z 04008KT 9999 SCT030 30/23 Q1010

TAF (pilot weather forecast)

Closest forecast is Oiapoque Airport, 52.2 nm (96.7 km) NE. Retrieved 2019/04/22 06:05 UTC (6 hours ago):

TAF SBOI 220400Z 2206/2218 06008KT 9999 SCT017 TN28/2213Z TX30/2217Z BECMG 2213/2215 03008KT 9999 SCT023 RMK PFM